Time;durP1;ratioP1;P1;durP2;ratioP2;P2;SDS_P1;SDS_P2;PMS_P1;PMS_P2;Temp;Humidity;BMP_temperature;BMP_pressure;BME280_temperature;BME280_humidity;BME280_pressure;Samples;Min_cycle;Max_cycle;Signal;HPM_P1;HPM_P2
2022/07/31 00:04:43;;;;;;;19.00;14.80;;;;;;;19.85;67.12;98325.80;238851;1190;138961;-58
2022/07/31 00:09:46;;;;;;;18.80;14.10;;;;;;;19.80;67.16;98324.77;238370;1192;140741;-58
2022/07/31 00:14:56;;;;;;;14.60;11.50;;;;;;;19.75;67.18;98327.14;238237;1192;140046;-58
2022/07/31 00:19:59;;;;;;;15.30;11.80;;;;;;;19.75;67.37;98333.18;238607;1192;141887;-58
2022/07/31 00:25:02;;;;;;;14.10;10.30;;;;;;;19.77;67.46;98341.10;238594;1191;140285;-57
2022/07/31 00:30:06;;;;;;;12.70;9.80;;;;;;;19.74;67.34;98338.58;238294;1191;139514;-57
2022/07/31 00:35:10;;;;;;;10.20;7.70;;;;;;;19.75;67.31;98331.98;238538;1192;141112;-58
2022/07/31 00:40:15;;;;;;;10.00;7.30;;;;;;;19.72;67.16;98325.99;238446;1191;140118;-59
2022/07/31 00:45:18;;;;;;;11.40;7.70;;;;;;;19.69;67.42;98328.45;238818;1191;139105;-58
2022/07/31 00:50:30;;;;;;;12.60;7.00;;;;;;;19.69;67.39;98327.27;238526;1192;139214;-59
2022/07/31 00:55:33;;;;;;;7.60;6.80;;;;;;;19.65;67.39;98328.92;238365;1192;139231;-58
2022/07/31 01:00:53;;;;;;;7.40;5.70;;;;;;;19.62;67.47;98328.14;238409;1191;138679;-56
2022/07/31 01:05:56;;;;;;;7.40;5.50;;;;;;;19.65;67.47;98333.12;238960;1191;139152;-57
2022/07/31 01:11:12;;;;;;;11.70;6.50;;;;;;;19.66;67.60;98334.45;238394;1192;139096;-58
2022/07/31 01:16:17;;;;;;;10.10;6.30;;;;;;;19.61;67.57;98335.05;238217;1192;138646;-58
2022/07/31 01:21:31;;;;;;;;;;;;;;;19.60;67.72;98334.98;238149;1192;139237;-58
2022/07/31 01:26:42;;;;;;;10.90;6.40;;;;;;;19.62;67.79;98328.83;238266;1192;126364;-58
2022/07/31 01:31:56;;;;;;;7.70;6.40;;;;;;;19.67;67.70;98320.84;238167;1192;139171;-58
2022/07/31 01:37:19;;;;;;;6.30;5.60;;;;;;;19.66;67.71;98321.23;238352;1192;138934;-58
2022/07/31 01:42:24;;;;;;;6.20;5.60;;;;;;;19.65;67.69;98316.59;238209;1193;161596;-59
2022/07/31 01:47:31;;;;;;;6.00;5.20;;;;;;;19.65;67.69;98316.14;238390;1192;139406;-59
2022/07/31 01:52:38;;;;;;;8.70;5.00;;;;;;;19.59;67.56;98306.80;238481;1192;139374;-58
2022/07/31 01:57:41;;;;;;;5.00;4.50;;;;;;;19.58;67.68;98305.89;238411;1192;139459;-56
2022/07/31 02:02:48;;;;;;;5.20;4.70;;;;;;;19.58;67.85;98299.96;238011;1193;138903;-58
2022/07/31 02:07:56;;;;;;;5.20;4.30;;;;;;;19.60;67.81;98299.02;237944;1193;138766;-55
2022/07/31 02:13:04;;;;;;;5.20;4.10;;;;;;;19.58;67.72;98292.04;238363;1192;139458;-56
2022/07/31 02:18:11;;;;;;;4.30;3.80;;;;;;;19.58;67.64;98286.05;238551;1191;140555;-58
2022/07/31 02:23:29;;;;;;;5.30;3.90;;;;;;;19.60;67.83;98282.31;238291;1192;138752;-58
2022/07/31 02:28:37;;;;;;;6.10;3.80;;;;;;;19.56;67.73;98279.85;238218;1192;138730;-58
2022/07/31 02:33:44;;;;;;;6.40;3.70;;;;;;;19.57;67.89;98280.23;238515;1192;140155;-58
2022/07/31 02:38:50;;;;;;;4.80;3.80;;;;;;;19.59;67.87;98278.10;238565;1191;139609;-58
2022/07/31 02:43:53;;;;;;;;;;;;;;;19.61;68.00;98276.03;238259;1192;139240;-58
2022/07/31 02:48:58;;;;;;;6.90;3.20;;;;;;;19.59;67.94;98271.38;238334;1192;126268;-58
2022/07/31 02:54:03;;;;;;;5.60;2.40;;;;;;;19.56;67.97;98273.68;238499;1191;138658;-58
2022/07/31 02:59:06;;;;;;;3.40;2.50;;;;;;;19.57;68.00;98275.39;238586;1192;139751;-59
2022/07/31 03:04:23;;;;;;;4.60;2.30;;;;;;;19.58;68.05;98278.20;238383;1192;139100;-58
2022/07/31 03:09:26;;;;;;;5.60;2.40;;;;;;;19.56;68.12;98272.48;238228;1192;139501;-57
2022/07/31 03:14:45;;;;;;;4.90;2.20;;;;;;;19.54;68.11;98271.80;238399;1192;140066;-57
2022/07/31 03:19:49;;;;;;;3.20;1.50;;;;;;;19.52;68.20;98268.55;238403;1192;140716;-58
2022/07/31 03:24:53;;;;;;;2.70;1.40;;;;;;;19.55;68.28;98260.72;238483;1191;140654;-57
2022/07/31 03:29:57;;;;;;;2.60;1.00;;;;;;;19.58;68.29;98254.58;238280;1192;139563;-58
2022/07/31 03:35:00;;;;;;;2.20;0.80;;;;;;;19.63;68.41;98250.27;238547;1192;139999;-58
2022/07/31 03:40:03;;;;;;;1.60;0.60;;;;;;;19.69;68.42;98248.08;238388;1192;139698;-56
2022/07/31 03:45:09;;;;;;;1.10;0.70;;;;;;;19.69;68.27;98248.82;238149;1192;138665;-58
2022/07/31 03:50:13;;;;;;;1.10;0.40;;;;;;;19.68;68.29;98251.35;238176;1192;140552;-57
2022/07/31 03:55:17;;;;;;;2.70;0.50;;;;;;;19.69;68.31;98255.36;238639;1192;139641;-58
2022/07/31 04:00:25;;;;;;;1.40;0.50;;;;;;;19.73;68.47;98251.17;238793;1192;139645;-58
2022/07/31 04:05:30;;;;;;;0.80;0.50;;;;;;;19.75;68.38;98250.95;238154;1193;139511;-58
2022/07/31 04:10:37;;;;;;;0.50;0.40;;;;;;;19.74;68.29;98249.28;238363;1193;139216;-58
2022/07/31 04:15:41;;;;;;;1.40;0.70;;;;;;;19.74;68.32;98245.13;238495;1192;140069;-58
2022/07/31 04:20:45;;;;;;;1.00;0.70;;;;;;;19.79;68.31;98252.81;238293;1191;140421;-59
2022/07/31 04:25:48;;;;;;;1.60;0.90;;;;;;;19.83;68.46;98256.55;238677;1192;139643;-58
2022/07/31 04:31:07;;;;;;;1.30;0.70;;;;;;;19.84;68.24;98263.46;238677;1191;139228;-58
2022/07/31 04:36:13;;;;;;;1.70;0.50;;;;;;;19.80;68.15;98269.95;238333;1193;139188;-58
2022/07/31 04:41:33;;;;;;;0.50;0.50;;;;;;;19.85;68.09;98278.08;238195;1192;141218;-58
2022/07/31 04:46:36;;;;;;;1.20;0.50;;;;;;;19.91;67.98;98286.73;238376;1192;140035;-58
2022/07/31 04:51:40;;;;;;;0.60;0.40;;;;;;;19.92;67.78;98287.41;238688;1190;138662;-58
2022/07/31 04:56:43;;;;;;;1.40;0.30;;;;;;;19.88;67.63;98293.05;238401;1192;140541;-58
2022/07/31 05:01:47;;;;;;;3.50;0.40;;;;;;;19.82;67.41;98302.33;238034;1193;139009;-58
2022/07/31 05:06:54;;;;;;;1.60;0.30;;;;;;;19.80;67.32;98307.45;238583;1192;140316;-58
2022/07/31 05:11:57;;;;;;;2.20;0.30;;;;;;;19.78;67.18;98313.10;238707;1192;139845;-58
2022/07/31 05:17:00;;;;;;;1.00;0.40;;;;;;;19.79;67.20;98317.98;238325;1192;140084;-58
2022/07/31 05:22:19;;;;;;;1.20;0.30;;;;;;;19.77;67.10;98318.05;238208;1193;138821;-57
2022/07/31 05:27:40;;;;;;;2.90;0.50;;;;;;;19.73;66.94;98323.39;238714;1192;138584;-58
2022/07/31 05:32:44;;;;;;;1.90;0.30;;;;;;;19.65;66.89;98323.38;238630;1192;139462;-58
2022/07/31 05:37:47;;;;;;;1.20;0.30;;;;;;;19.58;66.89;98331.40;238247;1193;139541;-58
2022/07/31 05:42:52;;;;;;;0.80;0.30;;;;;;;19.52;67.06;98339.69;238407;1192;138646;-57
2022/07/31 05:48:04;;;;;;;0.50;0.40;;;;;;;19.44;67.08;98341.45;238845;1191;138565;-58
2022/07/31 05:53:10;;;;;;;1.60;0.50;;;;;;;19.39;67.22;98336.47;238552;1192;138871;-57
2022/07/31 05:58:33;;;;;;;2.50;0.50;;;;;;;19.40;67.24;98331.28;238313;1192;140151;-58
2022/07/31 06:03:39;;;;;;;2.10;0.50;;;;;;;19.40;67.39;98331.15;238354;1192;140143;-58
2022/07/31 06:09:06;;;;;;;1.30;0.60;;;;;;;19.40;67.54;98331.11;238536;1192;138866;-58
2022/07/31 06:14:15;;;;;;;0.70;0.50;;;;;;;19.39;67.57;98331.95;238737;1190;138857;-58
2022/07/31 06:19:36;;;;;;;0.90;0.50;;;;;;;19.36;67.75;98333.84;238513;1192;139017;-58
2022/07/31 06:24:39;;;;;;;1.30;0.40;;;;;;;19.42;67.87;98336.44;238431;1192;139329;-58
2022/07/31 06:29:45;;;;;;;0.70;0.40;;;;;;;19.50;67.92;98340.65;238558;1193;140562;-58
2022/07/31 06:34:48;;;;;;;0.60;0.40;;;;;;;19.51;67.84;98344.30;238678;1192;138767;-58
2022/07/31 06:39:52;;;;;;;2.10;0.70;;;;;;;19.47;67.64;98347.81;238105;1193;142339;-58
2022/07/31 06:45:21;;;;;;;0.40;0.30;;;;;;;19.43;67.72;98355.46;237991;1192;138881;-58
2022/07/31 06:51:03;;;;;;;1.40;0.80;;;;;;;19.39;67.69;98362.17;238808;1191;140658;-59
2022/07/31 06:56:27;;;;;;;1.20;0.60;;;;;;;19.35;67.69;98367.77;238548;1192;138941;-58
2022/07/31 07:01:30;;;;;;;1.40;0.50;;;;;;;19.37;67.93;98364.00;238289;1193;138514;-58
2022/07/31 07:06:34;;;;;;;2.00;0.60;;;;;;;19.37;67.80;98367.20;238283;1193;138601;-58
2022/07/31 07:11:37;;;;;;;0.90;0.50;;;;;;;19.37;67.78;98369.90;238565;1192;140731;-58
2022/07/31 07:16:40;;;;;;;0.50;0.40;;;;;;;19.38;67.73;98372.90;238824;1192;139564;-58
2022/07/31 07:21:43;;;;;;;0.80;0.60;;;;;;;19.39;67.82;98373.64;238654;1191;139313;-58
2022/07/31 07:26:46;;;;;;;1.80;0.50;;;;;;;19.37;67.76;98381.09;238440;1192;139610;-59
2022/07/31 07:31:49;;;;;;;0.90;0.50;;;;;;;19.31;67.80;98386.28;238631;1192;138848;-58
2022/07/31 07:36:52;;;;;;;1.60;0.50;;;;;;;19.26;67.65;98390.05;238808;1191;140392;-58
2022/07/31 07:41:58;;;;;;;0.30;0.30;;;;;;;19.24;67.69;98389.59;238214;1192;138951;-58
2022/07/31 07:47:01;;;;;;;0.60;0.40;;;;;;;19.20;67.60;98396.69;237818;1193;139287;-57
2022/07/31 07:52:06;;;;;;;1.00;0.60;;;;;;;19.12;67.59;98400.69;238655;1192;138850;-58
2022/07/31 07:57:14;;;;;;;1.30;0.40;;;;;;;19.07;67.59;98405.73;238781;1191;138773;-58
2022/07/31 08:02:37;;;;;;;2.30;0.30;;;;;;;19.07;67.61;98412.17;238337;1192;139816;-58
2022/07/31 08:07:41;;;;;;;0.60;0.50;;;;;;;19.08;67.53;98416.62;238186;1192;140247;-56
2022/07/31 08:13:04;;;;;;;3.20;0.50;;;;;;;19.01;67.59;98424.25;238808;1190;138702;-58
2022/07/31 08:18:26;;;;;;;1.70;0.40;;;;;;;18.94;67.50;98434.45;238735;1190;138802;-58
2022/07/31 08:23:30;;;;;;;0.80;0.40;;;;;;;18.88;67.52;98437.77;238309;1192;139158;-58
2022/07/31 08:28:34;;;;;;;0.50;0.50;;;;;;;18.83;67.57;98444.45;238252;1192;139781;-58
2022/07/31 08:33:38;;;;;;;1.10;0.70;;;;;;;18.86;67.82;98448.05;238786;1191;139045;-58
2022/07/31 08:38:41;;;;;;;1.40;0.60;;;;;;;18.92;67.74;98449.55;238779;1190;139003;-55
2022/07/31 08:44:19;;;;;;;0.90;0.50;;;;;;;18.95;67.75;98455.61;238301;1192;139724;-58
2022/07/31 08:49:39;;;;;;;1.70;0.80;;;;;;;18.93;67.68;98452.20;238251;1192;139824;-57
2022/07/31 08:54:45;;;;;;;1.70;0.70;;;;;;;18.93;67.67;98453.09;238632;1191;140489;-57
2022/07/31 08:59:52;;;;;;;1.40;0.80;;;;;;;18.97;67.72;98452.73;238180;1192;139891;-58
2022/07/31 09:04:55;;;;;;;0.90;0.70;;;;;;;19.02;67.78;98451.73;238273;1192;139635;-56
2022/07/31 09:09:59;;;;;;;1.70;0.70;;;;;;;19.04;67.70;98452.98;238312;1192;139141;-59
2022/07/31 09:15:02;;;;;;;0.60;0.40;;;;;;;19.03;67.67;98454.11;238638;1191;139904;-59
2022/07/31 09:20:17;;;;;;;1.60;0.70;;;;;;;19.00;67.67;98460.19;238635;1192;140463;-59
2022/07/31 09:25:20;;;;;;;2.80;1.00;;;;;;;18.98;67.56;98462.44;238313;1192;139151;-59
2022/07/31 09:30:24;;;;;;;1.40;0.80;;;;;;;18.96;67.79;98465.02;238123;1192;139461;-58
2022/07/31 09:35:51;;;;;;;2.20;1.10;;;;;;;18.97;67.71;98463.61;238721;1191;139240;-59
2022/07/31 09:40:54;;;;;;;1.50;1.00;;;;;;;18.94;67.68;98470.21;238543;1191;139168;-59
2022/07/31 09:46:04;;;;;;;1.30;0.70;;;;;;;18.92;67.66;98469.06;238362;1192;141223;-59
2022/07/31 09:51:16;;;;;;;1.70;0.80;;;;;;;18.92;67.72;98469.39;238469;1192;138956;-59
2022/07/31 09:56:30;;;;;;;1.50;0.80;;;;;;;18.95;67.77;98475.58;238460;1192;139142;-59
2022/07/31 10:01:35;;;;;;;2.20;1.20;;;;;;;18.96;67.81;98480.47;238629;1190;139051;-59
2022/07/31 10:06:40;;;;;;;1.70;1.00;;;;;;;18.92;67.55;98483.38;238290;1193;138720;-59
2022/07/31 10:11:46;;;;;;;1.60;1.20;;;;;;;18.94;67.72;98487.16;238297;1192;140298;-59
2022/07/31 10:16:57;;;;;;;1.50;1.10;;;;;;;18.90;67.68;98490.04;238538;1192;139171;-57
2022/07/31 10:22:21;;;;;;;1.60;1.20;;;;;;;18.93;67.80;98493.33;238622;1190;139704;-59
2022/07/31 10:27:26;;;;;;;7.10;5.70;;;;;;;18.93;67.83;98496.07;238197;1192;138842;-59
2022/07/31 10:32:38;;;;;;;1.30;1.00;;;;;;;18.93;67.74;98500.41;238046;1193;139904;-58
2022/07/31 10:38:11;;;;;;;1.10;1.00;;;;;;;18.90;67.64;98504.98;238091;1192;139262;-59
2022/07/31 10:43:48;;;;;;;1.20;1.00;;;;;;;18.88;67.75;98510.77;238057;1192;139217;-59
2022/07/31 10:49:14;;;;;;;0.90;0.70;;;;;;;18.82;67.65;98513.86;238406;1192;139861;-59
2022/07/31 10:54:45;;;;;;;1.70;0.90;;;;;;;18.77;67.71;98518.29;238492;1192;138702;-58
2022/07/31 11:00:17;;;;;;;1.10;0.80;;;;;;;18.83;68.01;98518.99;238266;1192;139338;-59
2022/07/31 11:05:31;;;;;;;2.20;0.70;;;;;;;19.06;68.26;98520.62;237946;1193;139996;-59
2022/07/31 11:11:15;;;;;;;1.40;0.90;;;;;;;19.24;68.26;98521.70;238277;1192;140322;-59
2022/07/31 11:16:48;;;;;;;1.60;0.70;;;;;;;19.29;67.81;98523.75;238223;1192;140199;-59
2022/07/31 11:22:16;;;;;;;1.10;0.80;;;;;;;19.25;67.68;98528.15;238625;1192;139868;-58
2022/07/31 11:27:34;;;;;;;1.20;0.80;;;;;;;19.22;67.69;98533.11;238355;1192;140219;-59
2022/07/31 11:32:37;;;;;;;1.30;0.90;;;;;;;19.17;67.70;98534.18;238360;1192;139656;-59
2022/07/31 11:37:42;;;;;;;1.10;0.80;;;;;;;19.15;67.77;98534.52;238378;1192;139878;-58
2022/07/31 11:43:00;;;;;;;1.00;0.70;;;;;;;19.20;67.92;98532.77;238609;1191;138811;-58
2022/07/31 11:48:25;;;;;;;1.70;0.60;;;;;;;19.18;67.76;98538.68;238408;1192;140065;-57
2022/07/31 11:53:29;;;;;;;1.10;0.50;;;;;;;19.07;67.63;98539.85;238217;1192;140031;-57
2022/07/31 11:58:32;;;;;;;0.80;0.70;;;;;;;19.04;67.56;98540.17;238189;1192;140040;-58
2022/07/31 12:03:37;;;;;;;1.00;0.60;;;;;;;19.03;67.80;98536.12;238268;1192;139756;-58
2022/07/31 12:08:40;;;;;;;0.60;0.50;;;;;;;19.02;67.84;98541.14;238103;1190;140346;-58
2022/07/31 12:13:47;;;;;;;0.50;0.50;;;;;;;19.02;67.87;98540.80;238308;1192;140721;-58
2022/07/31 12:18:57;;;;;;;1.00;0.40;;;;;;;19.03;67.86;98546.91;238697;1191;139526;-57
2022/07/31 12:24:08;;;;;;;0.80;0.70;;;;;;;19.06;68.00;98551.17;238609;1191;139455;-59
2022/07/31 12:29:12;;;;;;;1.20;0.70;;;;;;;19.07;67.92;98555.86;238586;1190;138937;-58
2022/07/31 12:34:31;;;;;;;0.60;0.40;;;;;;;19.07;67.88;98556.36;238520;1192;141284;-58
2022/07/31 12:39:36;;;;;;;1.20;0.50;;;;;;;19.12;68.03;98562.03;238562;1191;139340;-57
2022/07/31 12:45:01;;;;;;;6.70;5.80;;;;;;;19.13;68.12;98557.52;238397;1192;139914;-60
2022/07/31 12:50:23;;;;;;;0.60;0.60;;;;;;;19.13;67.81;98559.58;238323;1192;140467;-59
2022/07/31 12:55:28;;;;;;;0.50;0.50;;;;;;;19.01;67.71;98559.08;238224;1191;139418;-58
2022/07/31 13:00:31;;;;;;;3.20;2.40;;;;;;;18.92;67.94;98559.95;238527;1192;138951;-59
2022/07/31 13:05:39;;;;;;;1.00;0.60;;;;;;;18.76;67.93;98562.54;238590;1191;139428;-58
2022/07/31 13:10:43;;;;;;;1.00;0.50;;;;;;;18.69;68.23;98566.45;238186;1192;139667;-59
2022/07/31 13:15:46;;;;;;;1.00;0.60;;;;;;;18.68;68.33;98563.33;238148;1193;139479;-59
2022/07/31 13:20:48;;;;;;;0.80;0.70;;;;;;;18.65;68.58;98567.52;238665;1192;138843;-58
2022/07/31 13:25:51;;;;;;;39.30;33.60;;;;;;;18.68;68.67;98568.75;238737;1190;138939;-58
2022/07/31 13:30:54;;;;;;;1.90;1.50;;;;;;;18.75;68.85;98565.34;238644;1192;140186;-59
2022/07/31 13:35:57;;;;;;;0.90;0.70;;;;;;;18.79;68.65;98562.08;238751;1192;139620;-58
2022/07/31 13:46:23;;;;;;;0.30;0.30;;;;;;;18.70;68.81;98566.02;238750;1191;139507;-58
2022/07/31 13:51:26;;;;;;;2.10;0.70;;;;;;;18.66;68.85;98566.71;237823;1193;138804;-59
2022/07/31 13:56:30;;;;;;;0.80;0.50;;;;;;;18.67;68.80;98571.90;237919;1193;139928;-60
2022/07/31 14:01:45;;;;;;;1.00;0.50;;;;;;;18.67;68.88;98569.91;238764;1191;139526;-58
2022/07/31 14:07:08;;;;;;;0.80;0.60;;;;;;;18.64;68.85;98573.09;238632;1191;139107;-58
2022/07/31 14:12:14;;;;;;;0.50;0.50;;;;;;;18.62;69.14;98575.11;238044;1193;140288;-58
2022/07/31 14:17:17;;;;;;;3.50;0.90;;;;;;;18.66;69.30;98575.58;238009;1192;140246;-58
2022/07/31 14:22:20;;;;;;;1.20;0.80;;;;;;;18.76;69.40;98574.83;238680;1191;140116;-58
2022/07/31 14:27:23;;;;;;;7.40;4.70;;;;;;;18.86;69.49;98574.39;238535;1192;140018;-56
2022/07/31 14:32:28;;;;;;;2.40;1.30;;;;;;;18.89;69.31;98575.19;238304;1192;138487;-56
2022/07/31 14:37:31;;;;;;;2.30;1.30;;;;;;;18.91;69.43;98577.69;238177;1192;138971;-58
2022/07/31 14:42:34;;;;;;;1.10;0.90;;;;;;;18.92;69.30;98582.66;238420;1192;139469;-57
2022/07/31 14:47:37;;;;;;;1.90;1.20;;;;;;;18.89;69.26;98584.38;238517;1191;139992;-59
2022/07/31 14:52:40;;;;;;;1.30;1.00;;;;;;;18.91;69.32;98591.01;238169;1192;139533;-58
2022/07/31 14:57:43;;;;;;;1.80;1.20;;;;;;;18.89;69.38;98594.77;238206;1192;140604;-59
2022/07/31 15:02:48;;;;;;;2.40;1.00;;;;;;;18.88;69.36;98601.15;238538;1191;140335;-59
2022/07/31 15:07:51;;;;;;;89.20;66.10;;;;;;;18.93;69.46;98601.45;238549;1191;139673;-58
2022/07/31 15:12:55;;;;;;;3.10;2.40;;;;;;;19.02;69.51;98606.36;238171;1192;140199;-58
2022/07/31 15:17:58;;;;;;;59.70;48.90;;;;;;;19.04;69.30;98610.36;238086;1192;139630;-59
2022/07/31 15:23:01;;;;;;;4.10;2.90;;;;;;;19.05;69.35;98613.84;238543;1192;138891;-58
2022/07/31 15:28:04;;;;;;;2.60;1.70;;;;;;;19.05;69.14;98614.66;238530;1191;139092;-58
2022/07/31 15:33:07;;;;;;;1.70;1.40;;;;;;;19.07;69.16;98617.55;238523;1190;139409;-59
2022/07/31 15:38:10;;;;;;;1.50;1.40;;;;;;;19.15;69.34;98612.45;238332;1192;139028;-58
2022/07/31 15:43:13;;;;;;;2.60;1.40;;;;;;;19.20;69.22;98617.34;237873;1192;139940;-59
2022/07/31 15:48:16;;;;;;;1.40;1.10;;;;;;;19.15;69.04;98619.73;237942;1192;139664;-59
2022/07/31 15:53:19;;;;;;;3.00;1.30;;;;;;;19.15;69.16;98617.24;238423;1192;139233;-59
2022/07/31 15:58:22;;;;;;;2.80;1.20;;;;;;;19.16;69.08;98614.09;238621;1192;140448;-58
2022/07/31 16:03:29;;;;;;;1.10;0.80;;;;;;;19.21;69.10;98616.63;238279;1192;140252;-58
2022/07/31 16:08:52;;;;;;;1.10;1.00;;;;;;;19.17;69.00;98619.98;238173;1193;139301;-58
2022/07/31 16:13:56;;;;;;;1.80;1.30;;;;;;;19.15;68.97;98622.26;238593;1190;139217;-57
2022/07/31 16:18:59;;;;;;;2.80;0.80;;;;;;;19.13;68.93;98618.52;238636;1191;138857;-59
2022/07/31 16:24:03;;;;;;;0.90;0.80;;;;;;;19.11;68.77;98622.91;238175;1191;139562;-59
2022/07/31 16:29:06;;;;;;;49.30;40.30;;;;;;;19.10;68.85;98618.66;238533;1192;139831;-58
2022/07/31 16:34:19;;;;;;;3.90;2.70;;;;;;;19.16;69.15;98620.72;238435;1192;139168;-59
2022/07/31 16:39:22;;;;;;;4.00;1.90;;;;;;;19.21;68.93;98618.98;238468;1190;141021;-58
2022/07/31 16:44:25;;;;;;;4.00;1.20;;;;;;;19.19;68.80;98620.46;238068;1192;139079;-59
2022/07/31 16:49:28;;;;;;;1.20;0.80;;;;;;;19.16;68.70;98617.86;238008;1193;140335;-59
2022/07/31 16:54:41;;;;;;;3.90;1.00;;;;;;;19.17;68.69;98625.95;238702;1191;138708;-59
2022/07/31 16:59:44;;;;;;;3.00;1.30;;;;;;;19.11;68.68;98630.60;238646;1191;139155;-57
2022/07/31 17:05:00;;;;;;;1.90;1.40;;;;;;;19.10;68.77;98635.05;237946;1193;138989;-59
2022/07/31 17:10:04;;;;;;;3.50;1.30;;;;;;;19.09;68.70;98634.02;238532;1191;139105;-58
2022/07/31 17:15:08;;;;;;;3.30;1.10;;;;;;;19.11;68.82;98635.68;238588;1192;139756;-57
2022/07/31 17:20:11;;;;;;;1.90;1.30;;;;;;;19.15;68.80;98635.92;238650;1191;139675;-58
2022/07/31 17:25:17;;;;;;;4.70;1.40;;;;;;;19.11;68.70;98632.40;238593;1192;138705;-59
2022/07/31 17:30:20;;;;;;;3.10;1.70;;;;;;;19.04;68.83;98634.42;238422;1192;139495;-58
2022/07/31 17:35:23;;;;;;;4.00;2.40;;;;;;;18.99;68.78;98639.43;238275;1191;138764;-59
2022/07/31 17:40:26;;;;;;;29.50;24.80;;;;;;;18.96;68.95;98645.67;238317;1192;139868;-59
2022/07/31 17:45:45;;;;;;;5.40;2.10;;;;;;;19.03;69.09;98643.13;238015;1192;139906;-56
2022/07/31 17:51:09;;;;;;;2.80;2.40;;;;;;;19.03;69.02;98652.64;238162;1193;139127;-57
2022/07/31 17:56:14;;;;;;;5.00;2.50;;;;;;;19.01;68.80;98655.60;238597;1192;139852;-59
2022/07/31 18:01:21;;;;;;;;;;;;;;;18.93;68.81;98663.22;238583;1192;138902;-58
2022/07/31 18:06:33;;;;;;;4.40;2.30;;;;;;;18.85;68.90;98665.14;238285;1193;126082;-60
2022/07/31 18:11:36;;;;;;;4.50;2.70;;;;;;;18.82;69.04;98662.80;237999;1193;139158;-57
2022/07/31 18:16:39;;;;;;;5.70;2.70;;;;;;;18.80;69.24;98662.95;238602;1190;139956;-59
2022/07/31 18:21:42;;;;;;;6.00;2.80;;;;;;;18.80;69.14;98669.98;238590;1192;139445;-57
2022/07/31 18:26:48;;;;;;;5.30;2.70;;;;;;;18.80;69.23;98669.77;238135;1192;139284;-57
2022/07/31 18:31:50;;;;;;;3.20;2.50;;;;;;;18.79;69.34;98669.84;238009;1192;139496;-58
2022/07/31 18:36:53;;;;;;;6.00;2.90;;;;;;;18.84;69.46;98668.98;238567;1192;140263;-56
2022/07/31 18:41:56;;;;;;;26.40;20.20;;;;;;;18.83;69.29;98675.61;238562;1190;139094;-58
2022/07/31 18:46:59;;;;;;;27.80;20.40;;;;;;;18.83;69.55;98676.66;238074;1193;139895;-59
2022/07/31 18:52:03;;;;;;;5.60;3.50;;;;;;;18.90;69.69;98679.16;238140;1193;139966;-58
2022/07/31 18:57:07;;;;;;;4.60;3.00;;;;;;;18.92;69.49;98676.65;238234;1192;139773;-60
2022/07/31 19:02:10;;;;;;;5.50;2.70;;;;;;;18.92;69.37;98678.61;238036;1192;139571;-59
2022/07/31 19:07:14;;;;;;;3.80;3.20;;;;;;;18.94;69.61;98689.35;238303;1193;139618;-59
2022/07/31 19:12:17;;;;;;;3.90;3.00;;;;;;;18.93;69.53;98692.67;238534;1192;139011;-59
2022/07/31 19:17:20;;;;;;;5.90;2.90;;;;;;;18.88;69.34;98699.08;238149;1192;139589;-60
2022/07/31 19:22:24;;;;;;;5.10;2.90;;;;;;;18.92;69.48;98704.85;238299;1192;141509;-59
2022/07/31 19:27:26;;;;;;;6.20;3.30;;;;;;;18.99;69.57;98706.72;238447;1192;139402;-61
2022/07/31 19:32:49;;;;;;;6.60;3.20;;;;;;;19.03;69.50;98710.26;238360;1192;139109;-61
2022/07/31 19:37:57;;;;;;;4.00;2.90;;;;;;;19.02;69.48;98705.86;238452;1192;139056;-60
2022/07/31 19:43:01;;;;;;;5.00;2.60;;;;;;;19.02;69.47;98710.48;238204;1192;139171;-60
2022/07/31 19:48:04;;;;;;;3.30;2.50;;;;;;;19.05;69.43;98717.20;238396;1192;141489;-60
2022/07/31 19:53:07;;;;;;;7.20;3.00;;;;;;;19.07;69.48;98710.52;238524;1191;139363;-60
2022/07/31 19:58:10;;;;;;;5.60;2.80;;;;;;;19.06;69.41;98704.30;238388;1192;139750;-60
2022/07/31 20:03:13;;;;;;;6.40;2.80;;;;;;;19.02;69.39;98699.52;238427;1192;139463;-61
2022/07/31 20:08:16;;;;;;;3.90;2.60;;;;;;;19.00;69.33;98701.33;238543;1192;139249;-58
2022/07/31 20:13:19;;;;;;;6.00;3.00;;;;;;;19.04;69.49;98700.08;238451;1192;140103;-59
2022/07/31 20:18:25;;;;;;;6.90;3.10;;;;;;;19.07;69.44;98701.15;238418;1193;142816;-58
2022/07/31 20:23:32;;;;;;;6.20;2.90;;;;;;;19.10;69.51;98700.12;238124;1193;138987;-60
2022/07/31 20:28:38;;;;;;;5.10;2.80;;;;;;;19.12;69.55;98701.05;238421;1191;138692;-58
2022/07/31 20:33:42;;;;;;;7.20;3.00;;;;;;;19.11;69.39;98700.05;238440;1192;139823;-59
2022/07/31 20:39:01;;;;;;;7.90;2.80;;;;;;;19.14;69.49;98702.41;238252;1192;140126;-61
2022/07/31 20:44:04;;;;;;;4.00;2.70;;;;;;;19.14;69.38;98704.48;238239;1192;140571;-59
2022/07/31 20:49:07;;;;;;;5.90;2.80;;;;;;;19.15;69.51;98707.37;238619;1191;139291;-61
2022/07/31 20:54:31;;;;;;;5.70;3.40;;;;;;;19.09;69.37;98709.96;238534;1192;141923;-58
2022/07/31 20:59:36;;;;;;;;;;;;;;;19.06;69.42;98706.88;238490;1192;138775;-60
2022/07/31 21:04:39;;;;;;;3.90;2.70;;;;;;;19.03;69.44;98705.54;238485;1192;125822;-58
2022/07/31 21:09:42;;;;;;;8.90;3.00;;;;;;;19.06;69.62;98706.15;238557;1192;140270;-60
2022/07/31 21:14:45;;;;;;;5.80;3.00;;;;;;;19.05;69.52;98703.88;238554;1192;138968;-61
2022/07/31 21:19:48;;;;;;;5.50;3.00;;;;;;;19.06;69.72;98701.11;238325;1192;139882;-60
2022/07/31 21:24:51;;;;;;;7.10;3.50;;;;;;;19.09;69.66;98707.41;238663;1191;139051;-60
2022/07/31 21:29:54;;;;;;;7.90;3.10;;;;;;;19.11;69.59;98707.02;238356;1192;139419;-60
2022/07/31 21:34:59;;;;;;;8.50;3.60;;;;;;;19.14;69.60;98705.34;238231;1192;140425;-61
2022/07/31 21:40:02;;;;;;;7.60;3.10;;;;;;;19.18;69.80;98705.84;238282;1193;139075;-60
2022/07/31 21:45:06;;;;;;;5.00;4.00;;;;;;;19.19;69.67;98706.94;238397;1193;138947;-60
2022/07/31 21:50:09;;;;;;;5.20;3.10;;;;;;;19.12;69.39;98705.70;238423;1192;138864;-60
2022/07/31 21:55:13;;;;;;;8.20;3.80;;;;;;;19.10;69.45;98714.15;238722;1192;139879;-60
2022/07/31 22:00:16;;;;;;;4.90;3.40;;;;;;;19.13;69.57;98716.56;238473;1192;139346;-59
2022/07/31 22:10:45;;;;;;;4.80;4.10;;;;;;;19.16;69.43;98721.60;238474;1192;138862;-61
2022/07/31 22:15:48;;;;;;;5.00;3.30;;;;;;;19.15;69.67;98724.95;238549;1192;139579;-59
2022/07/31 22:21:05;;;;;;;7.60;3.90;;;;;;;19.16;69.51;98722.95;238271;1192;140260;-59
2022/07/31 22:26:09;;;;;;;7.60;3.70;;;;;;;19.15;69.52;98721.77;238315;1192;139761;-60
2022/07/31 22:31:12;;;;;;;5.20;3.50;;;;;;;19.13;69.58;98720.81;238532;1192;138922;-59
2022/07/31 22:36:16;;;;;;;5.00;3.70;;;;;;;19.13;69.67;98721.52;238516;1191;139437;-60
2022/07/31 22:41:19;;;;;;;4.80;3.40;;;;;;;19.13;69.67;98722.48;238366;1192;139044;-61
2022/07/31 22:46:22;;;;;;;5.30;3.10;;;;;;;19.15;69.53;98723.33;238350;1193;140555;-60
2022/07/31 22:51:25;;;;;;;6.80;3.80;;;;;;;19.17;69.53;98728.19;238549;1192;139443;-60
2022/07/31 22:56:28;;;;;;;6.90;3.50;;;;;;;19.13;69.56;98728.46;238614;1191;139969;-60
2022/07/31 23:01:31;;;;;;;4.30;3.90;;;;;;;19.14;69.63;98728.88;238537;1191;139486;-60
2022/07/31 23:06:34;;;;;;;4.50;3.50;;;;;;;19.16;69.63;98727.95;238420;1192;139835;-60
2022/07/31 23:11:37;;;;;;;8.70;6.10;;;;;;;19.15;69.60;98725.35;238593;1192;140141;-60
2022/07/31 23:16:41;;;;;;;6.90;4.50;;;;;;;19.16;69.62;98719.29;238838;1192;139501;-61
2022/07/31 23:21:44;;;;;;;9.00;4.00;;;;;;;19.22;69.72;98718.41;238407;1192;139791;-59
2022/07/31 23:26:47;;;;;;;6.20;4.60;;;;;;;19.20;69.57;98716.05;238293;1192;139728;-59
2022/07/31 23:31:50;;;;;;;5.50;4.10;;;;;;;19.18;69.60;98722.23;238419;1191;139749;-60
2022/07/31 23:36:53;;;;;;;7.30;4.40;;;;;;;19.18;69.58;98727.76;238838;1191;139197;-60
2022/07/31 23:47:18;;;;;;;6.20;5.00;;;;;;;19.18;69.45;98731.52;238364;1192;140608;-61
2022/07/31 23:52:21;;;;;;;7.80;4.70;;;;;;;19.16;69.54;98733.48;238545;1191;140323;-61